Time;durP1;ratioP1;P1;durP2;ratioP2;P2;SDS_P1;SDS_P2;PMS_P1;PMS_P2;Temp;Humidity;BMP_temperature;BMP_pressure;BME280_temperature;BME280_humidity;BME280_pressure;Samples;Min_cycle;Max_cycle;Signal;HPM_P1;HPM_P2
2022/05/16 00:02:19;;;;;;;9.07;3.30;;;20.90;53.00;;;;;;5054837;28;20478;-73
2022/05/16 00:04:48;;;;;;;9.60;3.45;;;20.80;53.20;;;;;;5060076;28;20040;-73
2022/05/16 00:07:14;;;;;;;8.65;3.60;;;20.80;53.30;;;;;;5052992;28;20493;-74
2022/05/16 00:09:39;;;;;;;11.57;4.22;;;20.80;53.80;;;;;;5054189;28;20028;-73
2022/05/16 00:12:07;;;;;;;9.95;4.28;;;20.80;54.80;;;;;;5053601;28;20167;-73
2022/05/16 00:14:34;;;;;;;10.57;3.80;;;20.70;55.70;;;;;;5053186;28;20128;-74
2022/05/16 00:16:59;;;;;;;9.57;4.72;;;20.70;56.40;;;;;;5053806;28;20056;-73
2022/05/16 00:19:25;;;;;;;9.63;5.15;;;20.70;57.60;;;;;;5053398;28;20037;-73
2022/05/16 00:21:51;;;;;;;10.10;4.75;;;20.70;58.40;;;;;;5054065;28;20025;-73
2022/05/16 00:24:18;;;;;;;8.80;4.63;;;20.60;59.00;;;;;;5053148;28;20104;-73
2022/05/16 00:26:44;;;;;;;9.43;4.80;;;20.60;59.50;;;;;;5053450;28;20057;-73
2022/05/16 00:29:10;;;;;;;12.32;5.20;;;20.60;60.00;;;;;;5053482;28;20044;-73
2022/05/16 00:31:35;;;;;;;9.48;4.90;;;20.50;60.10;;;;;;5052448;28;20458;-74
2022/05/16 00:34:01;;;;;;;7.10;4.45;;;20.50;61.20;;;;;;5053439;28;20025;-74
2022/05/16 00:36:27;;;;;;;10.13;4.68;;;20.40;60.50;;;;;;5052809;28;20086;-73
2022/05/16 00:38:55;;;;;;;10.55;5.05;;;20.40;60.90;;;;;;5053506;28;20049;-73
2022/05/16 00:41:21;;;;;;;10.43;5.28;;;20.30;61.30;;;;;;5052453;28;20029;-73
2022/05/16 00:43:56;;;;;;;11.63;5.35;;;20.30;61.50;;;;;;5053305;28;20070;-74
2022/05/16 00:46:25;;;;;;;13.70;5.50;;;20.30;61.60;;;;;;5052736;28;20029;-73
2022/05/16 00:48:50;;;;;;;9.35;4.78;;;20.30;62.20;;;;;;5053124;28;20025;-73
2022/05/16 00:51:43;;;;;;;11.75;4.97;;;20.20;62.00;;;;;;5052543;28;20032;-74
2022/05/16 00:54:20;;;;;;;12.43;5.15;;;20.10;62.50;;;;;;5042197;28;20470;-74
2022/05/16 00:56:50;;;;;;;8.80;5.10;;;20.00;62.50;;;;;;5053250;28;20029;-73
2022/05/16 00:59:17;;;;;;;8.02;4.32;;;20.00;62.70;;;;;;5052589;28;20338;-74
2022/05/16 01:07:11;;;;;;;9.65;4.28;;;19.80;62.00;;;;;;5052450;28;20036;-73
2022/05/16 01:09:37;;;;;;;10.60;4.75;;;19.80;62.50;;;;;;5052092;28;20029;-74
2022/05/16 01:12:04;;;;;;;7.95;4.45;;;19.80;62.80;;;;;;5061943;28;20357;-73
2022/05/16 01:14:49;;;;;;;9.02;4.65;;;19.70;63.30;;;;;;5071862;28;20051;-73
2022/05/16 01:17:15;;;;;;;9.50;4.70;;;19.70;63.20;;;;;;5072404;28;20123;-73
2022/05/16 01:19:41;;;;;;;8.95;4.15;;;19.70;63.30;;;;;;5072080;28;20031;-74
2022/05/16 01:22:31;;;;;;;9.20;4.25;;;19.70;62.80;;;;;;5072087;28;20021;-74
2022/05/16 01:25:06;;;;;;;7.15;4.00;;;19.60;61.40;;;;;;5072062;28;20493;-74
2022/05/16 01:27:44;;;;;;;9.25;4.05;;;19.50;60.50;;;;;;5071517;28;20036;-74
2022/05/16 01:30:11;;;;;;;11.68;4.55;;;19.40;59.90;;;;;;5072285;28;20075;-73
2022/05/16 01:32:36;;;;;;;8.50;3.67;;;19.40;59.60;;;;;;5053637;28;20326;-73
2022/05/16 01:35:02;;;;;;;8.00;3.75;;;19.30;59.50;;;;;;5072153;28;20552;-74
2022/05/16 01:38:18;;;;;;;10.90;4.05;;;19.30;59.90;;;;;;5071419;28;20134;-74
2022/05/16 01:40:14;;;;;;;8.30;3.85;;;19.30;60.00;;;;;;5071692;28;20086;-74
2022/05/16 01:42:39;;;;;;;7.05;4.03;;;19.30;60.20;;;;;;5070668;28;20373;-74
2022/05/16 01:45:05;;;;;;;6.35;3.80;;;19.20;60.30;;;;;;5071967;28;20044;-74
2022/05/16 01:47:33;;;;;;;7.30;3.58;;;19.20;60.60;;;;;;5071263;28;20082;-74
2022/05/16 01:49:59;;;;;;;6.75;3.63;;;19.20;60.40;;;;;;5071822;28;20035;-74
2022/05/16 01:52:24;;;;;;;6.30;4.00;;;19.20;60.60;;;;;;5071299;28;20043;-73
2022/05/16 01:54:50;;;;;;;8.73;4.07;;;19.20;60.70;;;;;;5071900;28;20517;-74
2022/05/16 01:57:16;;;;;;;6.57;3.75;;;19.20;60.50;;;;;;5071379;28;20467;-73
2022/05/16 01:59:41;;;;;;;8.95;4.22;;;19.20;60.50;;;;;;5071138;28;20040;-74
2022/05/16 02:02:07;;;;;;;8.93;3.58;;;19.20;60.10;;;;;;5071259;28;20045;-75
2022/05/16 02:04:33;;;;;;;9.48;4.47;;;19.20;60.10;;;;;;5071070;28;20035;-75
2022/05/16 02:06:58;;;;;;;12.35;4.10;;;19.20;60.10;;;;;;5071590;28;20357;-74
2022/05/16 02:09:24;;;;;;;8.50;3.95;;;19.10;59.90;;;;;;5071057;28;20495;-74
2022/05/16 02:11:50;;;;;;;8.00;3.83;;;19.10;59.90;;;;;;5071347;28;20377;-75
2022/05/16 02:14:16;;;;;;;8.07;4.28;;;19.10;60.00;;;;;;5068514;28;20032;-74
2022/05/16 02:16:41;;;;;;;9.30;4.30;;;19.10;60.10;;;;;;5070721;28;20028;-74
2022/05/16 02:19:07;;;;;;;13.35;4.20;;;19.00;60.20;;;;;;5071653;28;20028;-73
2022/05/16 02:27:01;;;;;;;11.30;4.45;;;19.00;60.50;;;;;;5071326;28;20538;-74
2022/05/16 02:29:26;;;;;;;8.55;3.78;;;19.00;60.60;;;;;;5070895;28;20032;-74
2022/05/16 02:31:52;;;;;;;8.45;3.72;;;19.00;60.70;;;;;;5071486;28;20052;-75
2022/05/16 02:34:18;;;;;;;8.27;3.92;;;18.90;60.90;;;;;;5070175;28;20028;-74
2022/05/16 02:36:44;;;;;;;8.63;3.88;;;18.90;60.80;;;;;;5071155;28;20070;-74
2022/05/16 02:39:10;;;;;;;11.50;4.22;;;18.90;61.10;;;;;;5071451;28;20420;-74
2022/05/16 02:41:36;;;;;;;10.88;4.20;;;18.90;60.60;;;;;;5070619;28;20025;-73
2022/05/16 02:44:02;;;;;;;6.80;3.72;;;18.90;60.50;;;;;;5071423;28;20027;-74
2022/05/16 02:46:28;;;;;;;9.10;4.18;;;18.80;60.30;;;;;;5070677;28;20041;-75
2022/05/16 02:48:54;;;;;;;8.60;3.72;;;18.80;60.50;;;;;;5071123;28;20478;-74
2022/05/16 02:51:20;;;;;;;11.43;3.97;;;18.80;60.70;;;;;;5071211;28;20020;-74
2022/05/16 02:53:45;;;;;;;8.88;3.53;;;18.70;61.10;;;;;;5067466;28;20097;-73
2022/05/16 02:56:11;;;;;;;11.20;4.15;;;18.70;61.40;;;;;;5075578;28;20036;-75
2022/05/16 02:58:36;;;;;;;9.85;3.80;;;18.80;61.60;;;;;;5056640;28;20123;-75
2022/05/16 03:01:02;;;;;;;7.03;3.80;;;18.80;62.00;;;;;;5074846;28;20024;-75
2022/05/16 03:03:28;;;;;;;8.73;3.78;;;18.80;62.10;;;;;;5074568;28;20085;-75
2022/05/16 03:05:53;;;;;;;8.50;3.75;;;18.80;61.90;;;;;;5075081;28;20151;-74
2022/05/16 03:08:19;;;;;;;8.23;3.90;;;18.80;62.00;;;;;;5074973;28;20043;-74
2022/05/16 03:10:45;;;;;;;9.07;3.90;;;18.80;62.00;;;;;;5074303;28;20032;-74
2022/05/16 03:13:10;;;;;;;9.98;3.83;;;18.80;62.10;;;;;;5074940;28;20025;-75
2022/05/16 03:15:36;;;;;;;11.20;4.05;;;18.80;62.20;;;;;;5074337;28;20071;-75
2022/05/16 03:18:02;;;;;;;9.45;4.00;;;18.80;62.30;;;;;;5074781;28;20102;-76
2022/05/16 03:20:28;;;;;;;10.07;3.58;;;18.70;62.30;;;;;;5074192;28;20457;-76
2022/05/16 03:22:54;;;;;;;8.63;3.95;;;18.70;62.70;;;;;;5077186;28;20021;-75
2022/05/16 03:25:19;;;;;;;7.22;4.15;;;18.70;63.00;;;;;;5074804;28;20032;-75
2022/05/16 03:27:46;;;;;;;9.73;4.03;;;18.70;63.00;;;;;;5073979;28;20259;-75
2022/05/16 03:30:12;;;;;;;9.93;3.83;;;18.60;63.40;;;;;;5074310;28;20497;-75
2022/05/16 03:32:38;;;;;;;8.32;4.00;;;18.60;63.50;;;;;;5073869;28;20090;-74
2022/05/16 03:35:06;;;;;;;10.25;4.30;;;18.60;63.70;;;;;;5074230;28;20067;-74
2022/05/16 03:37:31;;;;;;;10.90;4.00;;;18.60;63.40;;;;;;5073834;28;20036;-74
2022/05/16 03:42:41;;;;;;;7.85;3.72;;;18.60;62.60;;;;;;5073539;28;20035;-76
2022/05/16 03:45:07;;;;;;;7.15;3.45;;;18.60;62.20;;;;;;5074692;28;20028;-76
2022/05/16 03:47:33;;;;;;;8.80;4.20;;;18.60;62.10;;;;;;5073661;28;20124;-75
2022/05/16 03:49:59;;;;;;;6.57;3.55;;;18.60;61.90;;;;;;5074269;28;20195;-74
2022/05/16 03:52:24;;;;;;;10.57;4.25;;;18.60;62.30;;;;;;5074043;28;20052;-76
2022/05/16 03:54:50;;;;;;;9.88;4.03;;;18.50;62.00;;;;;;5073329;28;20418;-75
2022/05/16 03:57:15;;;;;;;9.05;3.80;;;18.50;62.60;;;;;;5074338;28;20059;-74
2022/05/16 03:59:41;;;;;;;8.82;3.97;;;18.50;62.50;;;;;;5073484;28;20108;-74
2022/05/16 04:02:08;;;;;;;12.48;4.95;;;18.60;62.50;;;;;;5073853;28;20046;-76
2022/05/16 04:04:34;;;;;;;12.88;4.05;;;18.60;62.90;;;;;;5072652;28;20483;-76
2022/05/16 04:06:59;;;;;;;8.75;3.80;;;18.50;62.70;;;;;;5073340;28;20058;-74
2022/05/16 04:09:25;;;;;;;11.35;3.58;;;18.50;62.60;;;;;;5073598;28;20436;-74
2022/05/16 04:11:51;;;;;;;10.68;4.10;;;18.50;63.20;;;;;;5073370;28;20104;-76
2022/05/16 04:14:16;;;;;;;8.07;4.15;;;18.60;63.10;;;;;;5074203;28;20032;-75
2022/05/16 04:16:42;;;;;;;7.05;3.83;;;18.60;63.30;;;;;;5073276;28;20513;-76
2022/05/16 04:19:08;;;;;;;9.75;4.45;;;18.60;63.20;;;;;;5074311;28;20413;-75
2022/05/16 04:21:36;;;;;;;14.00;4.32;;;18.70;62.90;;;;;;5073013;28;20330;-76
2022/05/16 04:24:01;;;;;;;10.95;4.28;;;18.70;62.10;;;;;;5056952;28;20025;-76
2022/05/16 04:26:28;;;;;;;8.00;3.92;;;18.70;61.90;;;;;;5053659;28;20045;-74
2022/05/16 04:28:54;;;;;;;9.35;4.10;;;18.80;61.20;;;;;;5052877;28;20036;-74
2022/05/16 04:31:19;;;;;;;10.70;4.40;;;18.90;60.70;;;;;;5053525;28;20021;-74
2022/05/16 04:33:45;;;;;;;10.10;4.20;;;18.90;61.20;;;;;;5052771;28;20147;-77
2022/05/16 04:36:11;;;;;;;9.65;4.30;;;19.10;61.00;;;;;;5053626;28;20033;-76
2022/05/16 04:38:36;;;;;;;13.18;4.63;;;19.20;60.90;;;;;;5062558;28;20381;-76
2022/05/16 04:43:47;;;;;;;8.70;3.70;;;19.40;60.20;;;;;;5065245;28;20040;-76
2022/05/16 04:46:12;;;;;;;11.13;4.35;;;19.60;59.80;;;;;;5069566;28;20036;-75
2022/05/16 04:48:38;;;;;;;8.27;4.00;;;19.70;58.80;;;;;;5072807;28;20028;-75
2022/05/16 04:51:04;;;;;;;12.27;4.03;;;19.90;58.60;;;;;;5073766;28;20032;-76
2022/05/16 04:53:30;;;;;;;12.73;5.05;;;20.00;57.80;;;;;;5073816;28;20029;-78
2022/05/16 04:55:56;;;;;;;6.88;3.92;;;20.10;57.30;;;;;;5073033;28;20030;-75
2022/05/16 04:58:23;;;;;;;15.07;4.75;;;20.10;57.30;;;;;;5073368;28;20102;-75
2022/05/16 05:00:48;;;;;;;10.07;4.05;;;20.10;56.70;;;;;;5072428;28;20379;-75
2022/05/16 05:03:14;;;;;;;8.35;3.90;;;20.30;57.10;;;;;;5073145;28;20081;-75
2022/05/16 05:05:40;;;;;;;12.90;4.30;;;20.50;57.00;;;;;;5072386;28;20024;-75
2022/05/16 05:08:05;;;;;;;9.57;4.45;;;20.70;56.50;;;;;;5073293;28;20078;-80
2022/05/16 05:16:15;;;;;;;11.52;4.72;;;21.40;54.80;;;;;;5073920;28;20193;-84
2022/05/16 05:19:00;;;;;;;10.80;4.47;;;21.70;53.30;;;;;;5072697;28;20024;-82
2022/05/16 05:21:27;;;;;;;13.30;4.25;;;22.20;52.50;;;;;;5075949;28;20028;-80
2022/05/16 05:23:55;;;;;;;11.40;4.40;;;23.00;51.80;;;;;;5054848;28;20020;-80
2022/05/16 05:26:21;;;;;;;9.98;4.35;;;24.20;48.80;;;;;;5074017;28;20044;-80
2022/05/16 05:28:46;;;;;;;10.15;4.03;;;25.30;46.10;;;;;;5073679;28;20021;-81
2022/05/16 05:31:15;;;;;;;11.43;4.15;;;26.50;43.20;;;;;;5075200;28;20318;-80
2022/05/16 05:33:42;;;;;;;8.93;4.10;;;27.30;41.20;;;;;;5072886;28;20017;-79
2022/05/16 05:36:08;;;;;;;10.05;4.18;;;28.10;39.90;;;;;;5073554;28;20033;-79
2022/05/16 05:38:36;;;;;;;9.82;4.28;;;28.90;38.70;;;;;;5072899;28;20034;-80
2022/05/16 05:41:05;;;;;;;8.88;3.85;;;29.60;37.20;;;;;;5073622;28;20037;-81
2022/05/16 05:43:31;;;;;;;11.70;3.60;;;30.30;35.80;;;;;;5073741;28;20025;-83
2022/05/16 05:45:57;;;;;;;10.18;3.90;;;31.00;34.50;;;;;;5070872;28;20036;-82
2022/05/16 05:48:22;;;;;;;10.38;3.85;;;31.80;33.40;;;;;;5072602;28;20021;-83
2022/05/16 05:50:48;;;;;;;9.55;3.88;;;32.40;32.70;;;;;;5072076;28;20040;-83
2022/05/16 05:53:13;;;;;;;10.77;4.13;;;32.90;32.40;;;;;;5072725;28;20465;-82
2022/05/16 05:55:40;;;;;;;11.95;3.53;;;33.70;31.50;;;;;;5071852;28;20031;-81
2022/05/16 05:58:06;;;;;;;8.82;4.05;;;34.30;31.20;;;;;;5073077;28;20515;-82
2022/05/16 06:00:31;;;;;;;9.10;3.50;;;34.90;30.00;;;;;;5074154;28;20060;-80
2022/05/16 06:02:58;;;;;;;8.82;4.03;;;35.40;29.60;;;;;;5076858;28;20210;-81
2022/05/16 06:05:24;;;;;;;17.70;4.63;;;35.60;29.20;;;;;;5063143;28;20032;-80
2022/05/16 06:07:50;;;;;;;13.52;4.20;;;36.20;28.80;;;;;;5091549;28;20088;-80
2022/05/16 06:10:15;;;;;;;10.20;3.75;;;36.50;28.50;;;;;;5095465;28;20032;-80
2022/05/16 06:12:41;;;;;;;10.75;3.97;;;36.50;28.00;;;;;;5092627;28;20052;-78
2022/05/16 06:15:09;;;;;;;7.43;3.50;;;36.90;27.70;;;;;;5080916;28;20092;-81
2022/05/16 06:17:35;;;;;;;10.18;3.78;;;36.80;27.40;;;;;;5075593;28;20021;-80
2022/05/16 06:20:02;;;;;;;8.75;3.47;;;36.60;27.70;;;;;;5073223;28;20020;-82
2022/05/16 06:22:34;;;;;;;9.48;3.67;;;36.10;27.30;;;;;;5072466;28;20101;-81
2022/05/16 06:27:51;;;;;;;13.85;4.00;;;34.00;28.60;;;;;;5071122;28;20040;-84
2022/05/16 06:30:19;;;;;;;8.90;3.30;;;33.20;29.50;;;;;;5072317;28;20032;-85
2022/05/16 06:32:45;;;;;;;14.75;3.80;;;32.40;29.90;;;;;;5070898;28;20115;-86
2022/05/16 06:35:11;;;;;;;10.27;3.72;;;31.80;30.20;;;;;;5072385;28;20108;-85
2022/05/16 06:37:38;;;;;;;9.15;3.33;;;31.40;30.70;;;;;;5072151;28;20036;-85
2022/05/16 06:40:04;;;;;;;10.07;3.67;;;31.00;31.20;;;;;;5071733;28;20457;-86
2022/05/16 06:42:30;;;;;;;9.60;3.78;;;30.90;31.80;;;;;;5072421;28;20462;-86
2022/05/16 06:44:55;;;;;;;8.50;3.50;;;30.80;31.40;;;;;;5071966;28;20050;-85
2022/05/16 06:47:21;;;;;;;7.65;2.80;;;30.90;30.40;;;;;;5072531;28;20028;-86
2022/05/16 06:49:47;;;;;;;6.55;2.88;;;31.20;30.70;;;;;;5072203;28;20060;-84
2022/05/16 06:52:12;;;;;;;6.47;3.35;;;31.80;30.50;;;;;;5072003;28;20028;-86
2022/05/16 06:57:22;;;;;;;8.25;3.05;;;32.10;28.90;;;;;;5072163;28;20090;-82
2022/05/16 06:59:48;;;;;;;6.93;3.53;;;32.40;29.30;;;;;;5053445;28;20099;-81
2022/05/16 07:02:14;;;;;;;11.40;3.42;;;32.80;29.40;;;;;;5071533;28;20044;-80
2022/05/16 07:04:40;;;;;;;8.10;3.00;;;32.70;28.70;;;;;;5072110;28;20029;-81
2022/05/16 07:07:08;;;;;;;9.27;3.60;;;32.40;29.20;;;;;;5071415;28;20036;-82
2022/05/16 07:09:37;;;;;;;8.50;3.50;;;32.20;29.20;;;;;;5072135;28;20028;-82
2022/05/16 07:12:03;;;;;;;9.93;3.63;;;32.00;29.30;;;;;;5071054;28;20385;-81
2022/05/16 07:14:29;;;;;;;5.60;2.88;;;31.90;29.50;;;;;;5071577;28;20082;-81
2022/05/16 07:16:55;;;;;;;9.52;3.00;;;31.80;29.50;;;;;;5071111;28;20025;-82
2022/05/16 07:19:20;;;;;;;9.32;2.65;;;32.00;29.30;;;;;;5071954;28;20033;-82
2022/05/16 07:21:46;;;;;;;6.68;2.95;;;32.20;29.30;;;;;;5071631;28;20030;-81
2022/05/16 07:24:11;;;;;;;7.20;3.05;;;32.10;29.90;;;;;;5071799;28;20449;-82
2022/05/16 07:29:22;;;;;;;8.32;3.05;;;32.20;30.00;;;;;;5071504;28;20036;-85
2022/05/16 07:31:47;;;;;;;9.68;3.17;;;32.20;29.80;;;;;;5073709;28;20028;-86
2022/05/16 07:34:14;;;;;;;7.40;3.30;;;31.90;30.20;;;;;;5071731;28;20116;-88
2022/05/16 07:36:39;;;;;;;7.70;3.28;;;32.00;30.70;;;;;;5071636;28;20032;-87
2022/05/16 07:39:05;;;;;;;9.50;3.47;;;32.40;30.10;;;;;;5071637;28;20032;-88
2022/05/16 07:41:31;;;;;;;10.35;3.60;;;32.80;30.00;;;;;;5074237;28;20025;-88
2022/05/16 07:43:57;;;;;;;10.13;3.22;;;33.10;29.70;;;;;;5074649;28;20414;-88
2022/05/16 07:46:23;;;;;;;9.70;3.55;;;33.10;30.00;;;;;;5075478;28;20040;-88
2022/05/16 07:48:49;;;;;;;10.18;3.22;;;33.30;29.40;;;;;;5073286;28;20020;-87
2022/05/16 07:51:15;;;;;;;10.68;3.25;;;33.20;29.20;;;;;;5075382;28;20040;-88
2022/05/16 07:53:41;;;;;;;8.55;3.28;;;33.20;29.90;;;;;;5075268;28;20024;-86
2022/05/16 07:56:09;;;;;;;7.28;2.80;;;33.50;29.30;;;;;;5074583;28;20469;-87
2022/05/16 07:58:35;;;;;;;10.45;3.50;;;33.70;28.90;;;;;;5075331;28;20427;-88
2022/05/16 08:01:01;;;;;;;9.48;3.65;;;33.90;29.10;;;;;;5074286;28;20024;-88
2022/05/16 08:03:30;;;;;;;9.93;3.58;;;34.00;28.80;;;;;;5074963;28;20051;-87
2022/05/16 08:05:56;;;;;;;10.60;3.13;;;34.00;29.00;;;;;;5074253;28;20037;-86
2022/05/16 08:11:09;;;;;;;8.98;3.40;;;34.40;28.80;;;;;;5074140;28;20395;-88
2022/05/16 08:13:36;;;;;;;8.75;3.10;;;34.60;29.70;;;;;;5074869;28;20028;-89
2022/05/16 08:16:02;;;;;;;14.68;3.63;;;34.30;28.30;;;;;;5071654;28;20056;-88
2022/05/16 08:18:28;;;;;;;6.32;2.88;;;34.00;28.40;;;;;;5075494;28;20327;-89
2022/05/16 08:20:54;;;;;;;9.85;3.00;;;33.70;28.60;;;;;;5073723;28;20053;-89
2022/05/16 08:23:30;;;;;;;6.53;2.83;;;33.40;29.20;;;;;;5074942;28;20020;-89
2022/05/16 08:25:58;;;;;;;12.15;2.90;;;33.50;29.80;;;;;;5074935;28;20145;-82
2022/05/16 08:28:24;;;;;;;9.77;3.20;;;33.80;29.80;;;;;;5074123;28;20081;-81
2022/05/16 08:30:50;;;;;;;12.00;3.47;;;33.90;28.90;;;;;;5074024;28;20017;-80
2022/05/16 08:33:16;;;;;;;9.93;3.05;;;33.90;28.90;;;;;;5074643;28;20089;-81
2022/05/16 08:35:42;;;;;;;7.57;2.88;;;33.60;28.80;;;;;;5074013;28;20443;-82
2022/05/16 08:41:00;;;;;;;6.82;3.08;;;33.60;29.00;;;;;;5073461;28;20338;-87
2022/05/16 08:43:28;;;;;;;8.85;3.20;;;33.40;29.30;;;;;;5074854;28;20075;-83
2022/05/16 08:46:34;;;;;;;9.02;3.10;;;33.30;29.40;;;;;;5073756;28;20089;-82
2022/05/16 08:49:24;;;;;;;11.57;3.47;;;32.90;30.00;;;;;;5061887;28;20117;-87
2022/05/16 08:52:19;;;;;;;9.13;3.45;;;32.90;30.50;;;;;;5073013;28;20027;-81
2022/05/16 08:55:11;;;;;;;9.30;3.30;;;32.40;29.90;;;;;;5025610;28;20085;-84
2022/05/16 08:57:45;;;;;;;14.10;3.97;;;32.20;30.60;;;;;;5073823;28;20465;-81
2022/05/16 09:00:35;;;;;;;11.00;3.42;;;32.00;31.60;;;;;;5073014;28;20345;-83
2022/05/16 09:03:05;;;;;;;9.25;3.15;;;31.40;31.20;;;;;;5055467;28;20048;-84
2022/05/16 09:05:45;;;;;;;9.35;2.90;;;31.10;31.90;;;;;;5073671;28;20388;-86
2022/05/16 09:08:16;;;;;;;6.85;2.60;;;30.80;31.70;;;;;;5072855;28;20583;-81
2022/05/16 09:11:45;;;;;;;9.60;2.78;;;30.60;32.90;;;;;;5073572;28;20025;-81
2022/05/16 09:14:22;;;;;;;11.35;3.10;;;30.10;32.40;;;;;;4981482;28;20100;-88
2022/05/16 09:17:08;;;;;;;12.43;3.30;;;29.70;32.90;;;;;;4992201;28;20401;-81
2022/05/16 09:19:54;;;;;;;6.88;3.35;;;29.60;34.40;;;;;;5062064;28;20037;-82
2022/05/16 09:22:31;;;;;;;7.78;3.10;;;29.30;34.10;;;;;;5073908;28;20024;-85
2022/05/16 09:25:11;;;;;;;9.38;3.10;;;29.20;34.70;;;;;;5072919;28;20034;-83
2022/05/16 09:30:26;;;;;;;5.47;2.80;;;29.20;34.40;;;;;;5073512;28;20039;-87
2022/05/16 09:33:05;;;;;;;10.68;3.03;;;28.90;34.30;;;;;;5073364;28;20441;-88
2022/05/16 09:35:37;;;;;;;8.50;3.15;;;28.90;35.20;;;;;;5075618;28;20059;-84
2022/05/16 09:38:04;;;;;;;15.20;3.97;;;28.90;34.80;;;;;;5072840;28;20032;-87
2022/05/16 09:40:40;;;;;;;18.15;3.30;;;28.70;34.80;;;;;;5073278;28;20063;-88
2022/05/16 09:43:20;;;;;;;12.75;3.15;;;28.40;34.70;;;;;;5072741;28;20033;-85
2022/05/16 09:46:22;;;;;;;9.55;3.28;;;28.40;35.60;;;;;;5072635;28;20444;-87
2022/05/16 09:49:01;;;;;;;10.45;3.40;;;28.60;36.40;;;;;;5072673;28;20025;-83
2022/05/16 09:51:27;;;;;;;10.07;3.20;;;28.60;35.10;;;;;;5072903;28;20108;-84
2022/05/16 09:53:54;;;;;;;11.05;3.10;;;28.50;35.70;;;;;;5072395;28;20414;-88
2022/05/16 09:56:26;;;;;;;6.05;2.83;;;28.50;35.60;;;;;;5072808;28;20039;-88
2022/05/16 09:59:04;;;;;;;9.43;3.17;;;28.50;37.70;;;;;;5072957;28;20074;-87
2022/05/16 10:01:44;;;;;;;6.07;2.72;;;28.60;37.10;;;;;;5078316;28;20044;-80
2022/05/16 10:04:14;;;;;;;9.85;4.32;;;28.80;36.00;;;;;;5077581;28;20029;-86
2022/05/16 10:06:44;;;;;;;15.20;3.40;;;28.90;36.00;;;;;;5072622;28;20036;-84
2022/05/16 10:09:15;;;;;;;9.38;3.33;;;29.00;34.80;;;;;;5072109;28;20484;-81
2022/05/16 10:11:50;;;;;;;11.65;2.80;;;28.90;34.90;;;;;;5055340;28;20080;-81
2022/05/16 10:14:17;;;;;;;7.80;2.97;;;28.70;34.30;;;;;;5072597;28;20467;-88
2022/05/16 10:16:48;;;;;;;7.05;2.67;;;28.60;34.90;;;;;;5084670;28;20051;-85
2022/05/16 10:19:20;;;;;;;;;;;28.70;35.50;;;;;;5081279;28;20598;-86
2022/05/16 10:21:55;;;;;;;11.38;4.30;;;28.80;35.70;;;;;;5055158;28;19919;-81
2022/05/16 10:24:27;;;;;;;9.85;3.17;;;28.90;36.20;;;;;;5069057;28;20021;-85
2022/05/16 10:27:09;;;;;;;8.95;3.03;;;29.00;36.20;;;;;;5072043;28;20037;-87
2022/05/16 10:29:38;;;;;;;9.90;3.10;;;29.10;35.80;;;;;;5072523;28;20056;-83
2022/05/16 10:35:02;;;;;;;10.00;3.40;;;29.20;35.50;;;;;;5072198;28;20027;-85
2022/05/16 10:37:31;;;;;;;8.25;3.63;;;29.20;35.10;;;;;;5072481;28;20117;-87
2022/05/16 10:40:05;;;;;;;8.82;3.50;;;29.10;34.80;;;;;;5072466;28;20028;-88
2022/05/16 10:42:46;;;;;;;11.20;2.45;;;29.00;34.80;;;;;;5072320;28;20047;-80
2022/05/16 10:45:19;;;;;;;10.20;3.05;;;28.90;35.40;;;;;;5071894;28;20048;-87
2022/05/16 10:48:16;;;;;;;11.00;2.83;;;28.80;35.30;;;;;;5072113;28;20181;-82
2022/05/16 10:51:11;;;;;;;7.65;3.00;;;28.60;35.80;;;;;;5054455;28;20021;-80
2022/05/16 10:53:45;;;;;;;11.93;3.10;;;28.50;36.30;;;;;;5058136;28;20082;-84
2022/05/16 10:56:34;;;;;;;12.15;5.63;;;28.50;36.00;;;;;;5071791;28;20029;-87
2022/05/16 10:59:21;;;;;;;8.40;3.10;;;28.70;36.30;;;;;;5071797;28;20520;-82
2022/05/16 11:02:35;;;;;;;9.15;3.28;;;28.60;35.50;;;;;;5071867;28;20361;-86
2022/05/16 11:05:12;;;;;;;7.57;2.72;;;28.70;36.00;;;;;;5046630;28;20036;-83
2022/05/16 11:07:52;;;;;;;11.23;3.38;;;28.80;36.50;;;;;;5072081;28;20064;-85
2022/05/16 11:10:27;;;;;;;11.25;3.13;;;28.70;35.50;;;;;;5071373;28;20027;-86
2022/05/16 11:13:08;;;;;;;5.25;2.63;;;28.60;35.00;;;;;;5071726;28;20052;-87
2022/05/16 11:15:40;;;;;;;15.18;3.70;;;28.60;35.60;;;;;;5074658;28;20100;-84
2022/05/16 11:18:26;;;;;;;13.88;3.20;;;28.60;36.10;;;;;;5075123;28;20115;-87
2022/05/16 11:21:03;;;;;;;7.90;3.20;;;28.60;35.20;;;;;;5075774;28;20024;-84
2022/05/16 11:23:50;;;;;;;9.75;2.85;;;28.70;35.50;;;;;;5075745;28;20385;-83
2022/05/16 11:26:24;;;;;;;9.50;2.92;;;28.70;35.40;;;;;;5075205;28;20040;-87
2022/05/16 11:29:23;;;;;;;8.15;2.78;;;28.80;35.10;;;;;;5075860;28;20052;-80
2022/05/16 11:31:58;;;;;;;9.15;2.83;;;28.80;35.20;;;;;;5077639;28;20021;-84
2022/05/16 11:34:43;;;;;;;6.90;2.70;;;28.80;35.20;;;;;;5074644;28;20043;-88
2022/05/16 11:37:23;;;;;;;8.00;2.95;;;28.80;35.40;;;;;;5074732;28;20032;-87
2022/05/16 11:40:02;;;;;;;6.50;2.60;;;28.90;35.00;;;;;;5074818;28;20074;-81
2022/05/16 11:42:50;;;;;;;4.03;2.45;;;28.90;35.10;;;;;;5075131;28;20316;-87
2022/05/16 11:45:37;;;;;;;8.30;3.03;;;28.90;34.90;;;;;;5074560;28;20024;-87
2022/05/16 11:48:31;;;;;;;7.78;2.55;;;28.90;35.10;;;;;;5075800;28;20033;-84
2022/05/16 11:51:09;;;;;;;8.98;2.80;;;28.80;35.00;;;;;;5067669;28;20055;-87
2022/05/16 11:53:44;;;;;;;8.38;2.90;;;28.80;35.40;;;;;;5074879;28;20028;-83
2022/05/16 12:02:20;;;;;;;10.98;3.13;;;28.30;36.30;;;;;;5075361;28;20129;-87
2022/05/16 12:04:54;;;;;;;12.68;3.40;;;28.10;36.20;;;;;;5074838;28;20487;-88
2022/05/16 12:07:45;;;;;;;11.07;2.90;;;28.00;36.50;;;;;;5074261;28;20028;-88
2022/05/16 12:10:14;;;;;;;9.68;2.42;;;27.90;37.10;;;;;;5074471;28;20111;-86
2022/05/16 12:13:07;;;;;;;8.50;3.08;;;27.90;37.50;;;;;;5075133;28;20032;-84
2022/05/16 12:15:33;;;;;;;6.00;3.00;;;27.90;37.50;;;;;;5066869;28;20028;-81
2022/05/16 12:18:27;;;;;;;8.45;3.13;;;27.90;37.80;;;;;;5054482;28;20381;-82
2022/05/16 12:21:04;;;;;;;8.45;2.88;;;27.90;38.00;;;;;;5054277;28;20515;-81
2022/05/16 12:23:52;;;;;;;9.15;2.95;;;27.80;37.90;;;;;;5054551;28;20025;-87
2022/05/16 12:26:27;;;;;;;9.00;3.03;;;27.80;38.70;;;;;;5053233;28;20488;-88
2022/05/16 12:29:15;;;;;;;4.55;2.80;;;27.80;38.30;;;;;;5054335;28;20423;-88
2022/05/16 12:31:49;;;;;;;7.72;2.85;;;27.70;38.00;;;;;;5036610;28;20021;-88
2022/05/16 12:34:36;;;;;;;9.60;3.03;;;27.70;38.40;;;;;;5053752;28;20029;-81
2022/05/16 12:37:06;;;;;;;8.77;3.28;;;27.70;38.50;;;;;;5040817;28;20454;-85
2022/05/16 12:39:44;;;;;;;9.45;3.65;;;27.60;38.10;;;;;;5053726;28;20017;-82
2022/05/16 12:42:44;;;;;;;8.10;2.88;;;27.60;38.20;;;;;;5054241;28;20029;-87
2022/05/16 12:45:16;;;;;;;11.05;3.03;;;27.60;39.00;;;;;;5053882;28;20091;-85
2022/05/16 12:48:22;;;;;;;6.32;3.22;;;27.60;39.00;;;;;;5054030;28;20079;-82
2022/05/16 12:51:29;;;;;;;8.07;3.10;;;27.60;38.70;;;;;;5036289;28;20025;-89
2022/05/16 12:54:30;;;;;;;17.85;3.63;;;27.50;38.90;;;;;;5039384;28;20457;-84
2022/05/16 12:56:58;;;;;;;6.50;3.00;;;27.50;39.00;;;;;;5054315;28;20108;-85
2022/05/16 13:00:01;;;;;;;10.68;3.10;;;27.50;38.90;;;;;;5053256;28;20059;-86
2022/05/16 13:02:35;;;;;;;8.05;3.08;;;27.50;39.30;;;;;;5052550;28;20084;-86
2022/05/16 13:05:12;;;;;;;6.97;2.70;;;27.50;39.30;;;;;;5053770;28;20025;-87
2022/05/16 13:08:14;;;;;;;8.82;3.00;;;27.50;39.30;;;;;;5053245;28;20033;-81
2022/05/16 13:10:56;;;;;;;5.55;2.80;;;27.50;39.30;;;;;;5049854;28;20040;-88
2022/05/16 13:13:59;;;;;;;6.53;3.28;;;27.50;39.50;;;;;;5052776;28;20029;-83
2022/05/16 13:16:33;;;;;;;8.80;2.97;;;27.40;39.30;;;;;;5052976;28;20036;-89
2022/05/16 13:19:08;;;;;;;8.68;3.05;;;27.30;39.70;;;;;;5053652;28;20032;-81
2022/05/16 13:21:40;;;;;;;7.75;3.08;;;27.20;40.10;;;;;;5053118;28;20033;-87
2022/05/16 13:24:08;;;;;;;12.80;3.72;;;27.10;40.40;;;;;;5054427;28;20048;-88
2022/05/16 13:29:23;;;;;;;8.25;3.22;;;27.10;40.50;;;;;;5059605;28;20438;-87
2022/05/16 13:31:58;;;;;;;7.20;3.28;;;27.00;40.40;;;;;;5073565;28;20020;-88
2022/05/16 13:34:45;;;;;;;7.90;3.50;;;27.00;40.60;;;;;;5072790;28;20063;-81
2022/05/16 13:37:12;;;;;;;15.40;3.33;;;27.10;40.40;;;;;;5054654;28;20032;-84
2022/05/16 13:39:47;;;;;;;7.97;2.88;;;27.00;40.40;;;;;;5079784;28;20033;-84
2022/05/16 13:42:13;;;;;;;7.55;3.00;;;27.00;40.60;;;;;;5061657;28;20377;-79
2022/05/16 13:44:41;;;;;;;8.32;3.10;;;27.00;40.60;;;;;;5073434;28;20035;-81
2022/05/16 13:47:12;;;;;;;7.53;3.13;;;27.00;40.50;;;;;;5073876;28;20040;-85
2022/05/16 13:49:40;;;;;;;12.45;3.20;;;26.90;40.80;;;;;;5055321;28;20020;-89
2022/05/16 13:52:16;;;;;;;14.32;3.30;;;27.00;40.80;;;;;;5073123;28;20017;-88
2022/05/16 13:54:42;;;;;;;8.20;3.00;;;27.00;41.00;;;;;;5072810;28;20020;-82
2022/05/16 13:57:09;;;;;;;6.55;2.97;;;27.00;40.80;;;;;;5073601;28;20036;-83